GLD166 SLVR-SPJC
Flight info
| Callsign | GLD166 |
|---|---|
| Flight time | 2h 10m |
| Altitude | 38000 |
| Route | DIBAS1 DIBAS UM415 ASOXI ESEDI3 |
| Aircraft | A320/M-SDFGIRY/S |
Departure
| Time | 2026-04-29 16:46 |
|---|---|
| Airport | Viru Viru International Airport (SLVR) |
Arrival
| Time | 2026-04-29 18:56 |
|---|---|
| Airport | Jorge Chávez International Airport (SPJC) |
| Time | Latitude | Longitude | Altitude | Speed | Heading |
|---|---|---|---|---|---|
| 2026-04-29 16:36 | -17.64685 | -63.14037 | 1231 ft | 0 kts | 243° |
| 2026-04-29 16:36 | -17.64678 | -63.14022 | 1231 ft | 3 kts | 243° |
| 2026-04-29 16:37 | -17.64670 | -63.14006 | 1231 ft | 3 kts | 243° |
| 2026-04-29 16:37 | -17.64662 | -63.13990 | 1231 ft | 2 kts | 243° |
| 2026-04-29 16:37 | -17.64655 | -63.13975 | 1231 ft | 0 kts | 246° |
| 2026-04-29 16:37 | -17.64654 | -63.13973 | 1231 ft | 3 kts | 251° |
| 2026-04-29 16:38 | -17.64652 | -63.13949 | 1231 ft | 3 kts | 298° |
| 2026-04-29 16:38 | -17.64663 | -63.13934 | 1231 ft | 3 kts | 333° |
| 2026-04-29 16:38 | -17.64668 | -63.13932 | 1231 ft | 0 kts | 333° |
| 2026-04-29 16:38 | -17.64667 | -63.13932 | 1231 ft | 1 kts | 333° |
| 2026-04-29 16:39 | -17.64657 | -63.13938 | 1231 ft | 3 kts | 331° |
| 2026-04-29 16:39 | -17.64634 | -63.13952 | 1231 ft | 5 kts | 329° |
| 2026-04-29 16:39 | -17.64599 | -63.13975 | 1231 ft | 7 kts | 327° |
| 2026-04-29 16:39 | -17.64551 | -63.14008 | 1231 ft | 9 kts | 330° |
| 2026-04-29 16:40 | -17.64488 | -63.14003 | 1231 ft | 10 kts | 38° |
| 2026-04-29 16:40 | -17.64446 | -63.13936 | 1231 ft | 12 kts | 58° |
| 2026-04-29 16:40 | -17.64403 | -63.13855 | 1231 ft | 12 kts | 83° |
| 2026-04-29 16:40 | -17.64459 | -63.13790 | 1231 ft | 13 kts | 146° |
| 2026-04-29 16:41 | -17.64542 | -63.13732 | 1231 ft | 15 kts | 146° |
| 2026-04-29 16:41 | -17.64636 | -63.13664 | 1232 ft | 18 kts | 145° |
| 2026-04-29 16:41 | -17.64740 | -63.13589 | 1232 ft | 18 kts | 147° |
| 2026-04-29 16:41 | -17.64817 | -63.13536 | 1232 ft | 0 kts | 147° |
| 2026-04-29 16:42 | -17.64822 | -63.13533 | 1232 ft | 2 kts | 147° |
| 2026-04-29 16:42 | -17.64838 | -63.13521 | 1232 ft | 4 kts | 147° |
| 2026-04-29 16:43 | -17.64866 | -63.13502 | 1232 ft | 6 kts | 146° |
| 2026-04-29 16:43 | -17.64913 | -63.13469 | 1232 ft | 11 kts | 146° |
| 2026-04-29 16:43 | -17.64989 | -63.13418 | 1232 ft | 15 kts | 149° |
| 2026-04-29 16:43 | -17.65094 | -63.13355 | 1232 ft | 20 kts | 151° |
| 2026-04-29 16:44 | -17.65225 | -63.13276 | 1232 ft | 24 kts | 148° |
| 2026-04-29 16:44 | -17.65377 | -63.13177 | 1232 ft | 28 kts | 148° |
| 2026-04-29 16:44 | -17.65548 | -63.13060 | 1233 ft | 31 kts | 146° |
| 2026-04-29 16:44 | -17.65735 | -63.12926 | 1233 ft | 34 kts | 146° |
| 2026-04-29 16:45 | -17.65865 | -63.12794 | 1233 ft | 20 kts | 92° |
| 2026-04-29 16:45 | -17.65799 | -63.12678 | 1235 ft | 16 kts | 9° |
| 2026-04-29 16:45 | -17.65687 | -63.12730 | 1235 ft | 23 kts | 328° |
| 2026-04-29 16:45 | -17.65289 | -63.13000 | 1233 ft | 113 kts | 327° |
| 2026-04-29 16:46 | -17.64430 | -63.13581 | 1322 ft | 172 kts | 327° |
| 2026-04-29 16:46 | -17.63343 | -63.14260 | 1944 ft | 193 kts | 329° |
| 2026-04-29 16:46 | -17.62111 | -63.15026 | 2638 ft | 220 kts | 327° |
| 2026-04-29 16:46 | -17.60754 | -63.15960 | 3410 ft | 246 kts | 324° |
| 2026-04-29 16:47 | -17.59296 | -63.17033 | 4055 ft | 263 kts | 324° |
| 2026-04-29 16:47 | -17.57789 | -63.18207 | 5002 ft | 270 kts | 317° |
| 2026-04-29 16:47 | -17.56500 | -63.19651 | 5953 ft | 273 kts | 306° |
| 2026-04-29 16:47 | -17.55481 | -63.21314 | 6920 ft | 276 kts | 300° |
| 2026-04-29 16:48 | -17.54479 | -63.23081 | 7832 ft | 280 kts | 300° |
| 2026-04-29 16:48 | -17.53469 | -63.24844 | 8705 ft | 284 kts | 300° |
| 2026-04-29 16:48 | -17.52441 | -63.26625 | 9547 ft | 288 kts | 300° |
| 2026-04-29 16:48 | -17.51394 | -63.28438 | 10253 ft | 297 kts | 301° |
| 2026-04-29 16:49 | -17.50282 | -63.30363 | 10513 ft | 320 kts | 301° |
| 2026-04-29 16:49 | -17.49086 | -63.32430 | 10706 ft | 343 kts | 301° |
| 2026-04-29 16:49 | -17.47809 | -63.34638 | 10859 ft | 366 kts | 301° |
| 2026-04-29 16:49 | -17.46449 | -63.36983 | 11012 ft | 386 kts | 301° |
| 2026-04-29 16:50 | -17.45038 | -63.39418 | 11519 ft | 394 kts | 301° |
| 2026-04-29 16:50 | -17.43608 | -63.41884 | 12153 ft | 399 kts | 301° |
| 2026-04-29 16:50 | -17.42162 | -63.44377 | 12790 ft | 402 kts | 301° |
| 2026-04-29 16:50 | -17.40703 | -63.46895 | 13424 ft | 406 kts | 301° |
| 2026-04-29 16:51 | -17.39236 | -63.49429 | 14053 ft | 410 kts | 301° |
| 2026-04-29 16:51 | -17.37749 | -63.51994 | 14672 ft | 413 kts | 301° |
| 2026-04-29 16:51 | -17.36251 | -63.54576 | 15259 ft | 417 kts | 301° |
| 2026-04-29 16:51 | -17.34925 | -63.57282 | 15809 ft | 420 kts | 291° |
| 2026-04-29 16:52 | -17.34044 | -63.60205 | 16367 ft | 423 kts | 282° |
| 2026-04-29 16:52 | -17.33581 | -63.63260 | 16883 ft | 426 kts | 277° |
| 2026-04-29 16:52 | -17.33179 | -63.66343 | 17398 ft | 429 kts | 277° |
| 2026-04-29 16:52 | -17.32768 | -63.69450 | 17901 ft | 432 kts | 277° |
| 2026-04-29 16:53 | -17.32350 | -63.72574 | 18388 ft | 435 kts | 277° |
| 2026-04-29 16:53 | -17.31928 | -63.75721 | 18858 ft | 438 kts | 277° |
| 2026-04-29 16:53 | -17.31502 | -63.78889 | 19320 ft | 441 kts | 277° |
| 2026-04-29 16:53 | -17.31072 | -63.82088 | 19768 ft | 444 kts | 277° |
| 2026-04-29 16:54 | -17.30638 | -63.85340 | 20208 ft | 447 kts | 277° |
| 2026-04-29 16:54 | -17.30206 | -63.88570 | 20619 ft | 450 kts | 277° |
| 2026-04-29 16:54 | -17.29768 | -63.91822 | 21009 ft | 452 kts | 278° |
| 2026-04-29 16:54 | -17.29327 | -63.95076 | 21372 ft | 455 kts | 278° |
| 2026-04-29 16:55 | -17.28879 | -63.98374 | 21714 ft | 457 kts | 278° |
| 2026-04-29 16:55 | -17.28430 | -64.01673 | 22038 ft | 459 kts | 278° |
| 2026-04-29 16:55 | -17.27980 | -64.04986 | 22357 ft | 461 kts | 278° |
| 2026-04-29 16:55 | -17.27527 | -64.08317 | 22676 ft | 464 kts | 278° |
| 2026-04-29 16:56 | -17.27073 | -64.11669 | 22973 ft | 466 kts | 278° |
| 2026-04-29 16:56 | -17.26622 | -64.15029 | 23271 ft | 468 kts | 278° |
| 2026-04-29 16:56 | -17.26167 | -64.18404 | 23565 ft | 470 kts | 278° |
| 2026-04-29 16:56 | -17.25708 | -64.21796 | 23850 ft | 472 kts | 278° |
| 2026-04-29 16:57 | -17.25247 | -64.25197 | 24130 ft | 474 kts | 278° |
| 2026-04-29 16:57 | -17.24779 | -64.28616 | 24423 ft | 475 kts | 278° |
| 2026-04-29 16:57 | -17.24312 | -64.32026 | 24819 ft | 474 kts | 278° |
| 2026-04-29 16:57 | -17.23845 | -64.35435 | 25219 ft | 473 kts | 278° |
| 2026-04-29 16:58 | -17.23381 | -64.38840 | 25616 ft | 472 kts | 278° |
| 2026-04-29 16:58 | -17.22921 | -64.42229 | 26012 ft | 471 kts | 278° |
| 2026-04-29 16:58 | -17.22460 | -64.45624 | 26420 ft | 471 kts | 278° |
| 2026-04-29 16:58 | -17.21807 | -64.48973 | 26817 ft | 470 kts | 285° |
| 2026-04-29 16:59 | -17.20822 | -64.52231 | 27212 ft | 469 kts | 287° |
| 2026-04-29 16:59 | -17.19824 | -64.55479 | 27616 ft | 469 kts | 287° |
| 2026-04-29 16:59 | -17.18827 | -64.58720 | 28018 ft | 468 kts | 287° |
| 2026-04-29 16:59 | -17.17836 | -64.61963 | 28422 ft | 467 kts | 287° |
| 2026-04-29 17:00 | -17.16851 | -64.65194 | 28822 ft | 467 kts | 287° |
| 2026-04-29 17:00 | -17.15864 | -64.68429 | 29221 ft | 466 kts | 287° |
| 2026-04-29 17:00 | -17.14879 | -64.71651 | 29619 ft | 465 kts | 287° |
| 2026-04-29 17:00 | -17.13897 | -64.74873 | 30032 ft | 465 kts | 287° |
| 2026-04-29 17:01 | -17.12917 | -64.78088 | 30420 ft | 464 kts | 287° |
| 2026-04-29 17:01 | -17.11920 | -64.81336 | 30825 ft | 463 kts | 287° |
| 2026-04-29 17:01 | -17.10944 | -64.84503 | 31202 ft | 463 kts | 287° |
| 2026-04-29 17:01 | -17.09951 | -64.87738 | 31596 ft | 462 kts | 287° |
| 2026-04-29 17:02 | -17.08973 | -64.90935 | 31977 ft | 461 kts | 287° |
| 2026-04-29 17:02 | -17.08328 | -64.93046 | 32233 ft | 461 kts | 287° |
| 2026-04-29 17:02 | -17.07022 | -64.97310 | 32741 ft | 460 kts | 287° |
| 2026-04-29 17:02 | -17.06375 | -64.99419 | 32985 ft | 459 kts | 287° |
| 2026-04-29 17:03 | -17.05401 | -65.02589 | 33364 ft | 459 kts | 287° |
| 2026-04-29 17:03 | -17.04423 | -65.05763 | 33732 ft | 458 kts | 287° |
| 2026-04-29 17:03 | -17.03448 | -65.08922 | 34106 ft | 457 kts | 287° |
| 2026-04-29 17:03 | -17.02473 | -65.12085 | 34478 ft | 457 kts | 287° |
| 2026-04-29 17:04 | -17.01503 | -65.15239 | 34844 ft | 456 kts | 287° |
| 2026-04-29 17:04 | -17.00535 | -65.18396 | 35192 ft | 455 kts | 287° |
| 2026-04-29 17:04 | -16.99567 | -65.21540 | 35529 ft | 455 kts | 287° |
| 2026-04-29 17:04 | -16.98598 | -65.24677 | 35848 ft | 454 kts | 287° |
| 2026-04-29 17:05 | -16.97627 | -65.27818 | 36157 ft | 453 kts | 287° |
| 2026-04-29 17:05 | -16.96659 | -65.30949 | 36451 ft | 453 kts | 287° |
| 2026-04-29 17:05 | -16.95691 | -65.34079 | 36722 ft | 453 kts | 288° |
| 2026-04-29 17:05 | -16.94722 | -65.37207 | 36980 ft | 453 kts | 288° |
| 2026-04-29 17:06 | -16.93753 | -65.40341 | 37226 ft | 453 kts | 287° |
| 2026-04-29 17:06 | -16.92784 | -65.43474 | 37475 ft | 453 kts | 288° |
| 2026-04-29 17:06 | -16.91801 | -65.46645 | 37715 ft | 453 kts | 288° |
| 2026-04-29 17:06 | -16.90828 | -65.49781 | 37930 ft | 454 kts | 288° |
| 2026-04-29 17:07 | -16.88871 | -65.56083 | 38010 ft | 460 kts | 288° |
| 2026-04-29 17:07 | -16.86891 | -65.62447 | 38009 ft | 461 kts | 288° |
| 2026-04-29 17:08 | -16.84908 | -65.68816 | 38009 ft | 462 kts | 288° |
| 2026-04-29 17:08 | -16.82920 | -65.75188 | 38009 ft | 462 kts | 288° |
| 2026-04-29 17:09 | -16.80979 | -65.81579 | 38011 ft | 462 kts | 287° |
| 2026-04-29 17:09 | -16.79065 | -65.87979 | 38018 ft | 462 kts | 287° |
| 2026-04-29 17:10 | -16.77149 | -65.94380 | 38018 ft | 462 kts | 287° |
| 2026-04-29 17:10 | -16.75208 | -66.00771 | 38020 ft | 462 kts | 287° |
| 2026-04-29 17:11 | -16.73258 | -66.07155 | 38018 ft | 462 kts | 287° |
| 2026-04-29 17:11 | -16.71317 | -66.13552 | 38020 ft | 462 kts | 287° |
| 2026-04-29 17:12 | -16.69374 | -66.19943 | 38021 ft | 462 kts | 287° |
| 2026-04-29 17:12 | -16.67739 | -66.25299 | 38025 ft | 463 kts | 287° |
| 2026-04-29 17:13 | -16.65472 | -66.32730 | 38024 ft | 463 kts | 287° |
| 2026-04-29 17:13 | -16.63530 | -66.39127 | 38024 ft | 463 kts | 287° |
| 2026-04-29 17:14 | -16.61582 | -66.45572 | 38025 ft | 463 kts | 287° |
| 2026-04-29 17:14 | -16.59634 | -66.51972 | 38025 ft | 463 kts | 287° |
| 2026-04-29 17:15 | -16.57688 | -66.58368 | 38030 ft | 463 kts | 287° |
| 2026-04-29 17:15 | -16.55741 | -66.64764 | 38028 ft | 463 kts | 287° |
| 2026-04-29 17:16 | -16.53789 | -66.71168 | 38027 ft | 463 kts | 287° |
| 2026-04-29 17:16 | -16.51835 | -66.77564 | 38028 ft | 463 kts | 287° |
| 2026-04-29 17:17 | -16.49886 | -66.83959 | 38032 ft | 463 kts | 287° |
| 2026-04-29 17:17 | -16.47931 | -66.90364 | 38028 ft | 463 kts | 287° |
| 2026-04-29 17:18 | -16.45973 | -66.96760 | 38028 ft | 463 kts | 287° |
| 2026-04-29 17:18 | -16.44006 | -67.03153 | 38031 ft | 464 kts | 287° |
| 2026-04-29 17:19 | -16.42039 | -67.09546 | 38028 ft | 464 kts | 287° |
| 2026-04-29 17:19 | -16.40074 | -67.15944 | 38028 ft | 464 kts | 287° |
| 2026-04-29 17:20 | -16.38109 | -67.22338 | 38033 ft | 464 kts | 287° |
| 2026-04-29 17:20 | -16.36139 | -67.28733 | 38029 ft | 464 kts | 287° |
| 2026-04-29 17:21 | -16.34166 | -67.35127 | 38029 ft | 464 kts | 287° |
| 2026-04-29 17:21 | -16.32187 | -67.41514 | 38031 ft | 464 kts | 287° |
| 2026-04-29 17:22 | -16.30209 | -67.47911 | 38030 ft | 464 kts | 287° |
| 2026-04-29 17:22 | -16.28221 | -67.54342 | 38029 ft | 464 kts | 287° |
| 2026-04-29 17:23 | -16.26246 | -67.60737 | 38030 ft | 464 kts | 287° |
| 2026-04-29 17:23 | -16.24265 | -67.67133 | 38031 ft | 464 kts | 288° |
| 2026-04-29 17:24 | -16.22285 | -67.73519 | 38031 ft | 464 kts | 287° |
| 2026-04-29 17:24 | -16.20332 | -67.79923 | 38031 ft | 464 kts | 287° |
| 2026-04-29 17:25 | -16.18391 | -67.86328 | 38031 ft | 464 kts | 287° |
| 2026-04-29 17:25 | -16.16443 | -67.92727 | 38031 ft | 464 kts | 287° |
| 2026-04-29 17:26 | -16.14484 | -67.99125 | 38031 ft | 464 kts | 287° |
| 2026-04-29 17:26 | -16.12520 | -68.05528 | 38031 ft | 464 kts | 287° |
| 2026-04-29 17:27 | -16.10557 | -68.11924 | 38031 ft | 464 kts | 287° |
| 2026-04-29 17:27 | -16.08592 | -68.18320 | 38032 ft | 464 kts | 287° |
| 2026-04-29 17:28 | -16.06629 | -68.24717 | 38032 ft | 464 kts | 287° |
| 2026-04-29 17:28 | -16.04677 | -68.31119 | 38032 ft | 465 kts | 287° |
| 2026-04-29 17:29 | -16.02715 | -68.37517 | 38032 ft | 465 kts | 287° |
| 2026-04-29 17:29 | -16.01073 | -68.42880 | 38032 ft | 465 kts | 287° |
| 2026-04-29 17:30 | -15.98781 | -68.50358 | 38032 ft | 465 kts | 287° |
| 2026-04-29 17:30 | -15.96840 | -68.56763 | 38033 ft | 465 kts | 287° |
| 2026-04-29 17:31 | -15.94896 | -68.63161 | 38032 ft | 465 kts | 287° |
| 2026-04-29 17:31 | -15.92941 | -68.69564 | 38032 ft | 465 kts | 287° |
| 2026-04-29 17:32 | -15.90981 | -68.75959 | 38032 ft | 465 kts | 287° |
| 2026-04-29 17:32 | -15.89023 | -68.82358 | 38032 ft | 465 kts | 287° |
| 2026-04-29 17:33 | -15.87063 | -68.88752 | 38032 ft | 465 kts | 287° |
| 2026-04-29 17:33 | -15.85105 | -68.95142 | 38031 ft | 465 kts | 287° |
| 2026-04-29 17:34 | -15.83157 | -69.01538 | 38031 ft | 465 kts | 287° |
| 2026-04-29 17:34 | -15.81194 | -69.07930 | 38031 ft | 464 kts | 287° |
| 2026-04-29 17:35 | -15.78237 | -69.17510 | 38031 ft | 464 kts | 287° |
| 2026-04-29 17:36 | -15.76271 | -69.23892 | 38031 ft | 464 kts | 287° |
| 2026-04-29 17:36 | -15.74621 | -69.29246 | 38031 ft | 464 kts | 287° |
| 2026-04-29 17:37 | -15.72647 | -69.35631 | 38031 ft | 464 kts | 287° |
| 2026-04-29 17:37 | -15.70659 | -69.42014 | 38031 ft | 464 kts | 288° |
| 2026-04-29 17:38 | -15.68594 | -69.48363 | 38031 ft | 464 kts | 288° |
| 2026-04-29 17:38 | -15.66507 | -69.54703 | 38030 ft | 464 kts | 288° |
| 2026-04-29 17:39 | -15.64437 | -69.61055 | 38030 ft | 464 kts | 288° |
| 2026-04-29 17:39 | -15.62381 | -69.67408 | 38030 ft | 464 kts | 288° |
| 2026-04-29 17:40 | -15.60319 | -69.73751 | 38034 ft | 464 kts | 288° |
| 2026-04-29 17:40 | -15.58248 | -69.80100 | 38029 ft | 464 kts | 288° |
| 2026-04-29 17:41 | -15.56169 | -69.86442 | 38033 ft | 464 kts | 288° |
| 2026-04-29 17:41 | -15.54098 | -69.92789 | 38031 ft | 464 kts | 288° |
| 2026-04-29 17:42 | -15.52017 | -69.99171 | 38028 ft | 464 kts | 288° |
| 2026-04-29 17:42 | -15.49941 | -70.05508 | 38027 ft | 464 kts | 288° |
| 2026-04-29 17:43 | -15.47865 | -70.11845 | 38028 ft | 464 kts | 288° |
| 2026-04-29 17:43 | -15.45709 | -70.18158 | 38027 ft | 464 kts | 291° |
| 2026-04-29 17:44 | -15.43232 | -70.24337 | 38028 ft | 465 kts | 293° |
| 2026-04-29 17:44 | -15.40644 | -70.30479 | 38027 ft | 465 kts | 293° |
| 2026-04-29 17:45 | -15.38124 | -70.36640 | 38027 ft | 464 kts | 292° |
| 2026-04-29 17:45 | -15.35654 | -70.42815 | 38024 ft | 464 kts | 292° |
| 2026-04-29 17:46 | -15.33194 | -70.48990 | 38023 ft | 464 kts | 292° |
| 2026-04-29 17:46 | -15.30713 | -70.55164 | 38023 ft | 464 kts | 292° |
| 2026-04-29 17:47 | -15.28221 | -70.61328 | 38024 ft | 464 kts | 292° |
| 2026-04-29 17:47 | -15.25726 | -70.67494 | 38025 ft | 464 kts | 292° |
| 2026-04-29 17:48 | -15.23240 | -70.73670 | 38026 ft | 464 kts | 292° |
| 2026-04-29 17:48 | -15.20751 | -70.79842 | 38027 ft | 465 kts | 292° |
| 2026-04-29 17:49 | -15.18241 | -70.86056 | 38028 ft | 465 kts | 292° |
| 2026-04-29 17:49 | -15.15746 | -70.92225 | 38028 ft | 465 kts | 292° |
| 2026-04-29 17:50 | -15.13241 | -70.98391 | 38028 ft | 465 kts | 292° |
| 2026-04-29 17:50 | -15.10736 | -71.04561 | 38029 ft | 465 kts | 292° |
| 2026-04-29 17:51 | -15.08226 | -71.10730 | 38032 ft | 465 kts | 292° |
| 2026-04-29 17:51 | -15.05718 | -71.16899 | 38030 ft | 465 kts | 292° |
| 2026-04-29 17:52 | -15.03211 | -71.23069 | 38031 ft | 465 kts | 292° |
| 2026-04-29 17:52 | -15.00699 | -71.29233 | 38030 ft | 465 kts | 292° |
| 2026-04-29 17:53 | -14.98188 | -71.35396 | 38031 ft | 465 kts | 292° |
| 2026-04-29 17:53 | -14.95670 | -71.41554 | 38032 ft | 465 kts | 292° |
| 2026-04-29 17:54 | -14.93152 | -71.47710 | 38029 ft | 465 kts | 292° |
| 2026-04-29 17:54 | -14.90634 | -71.53870 | 38031 ft | 465 kts | 292° |
| 2026-04-29 17:55 | -14.88123 | -71.60026 | 38028 ft | 465 kts | 292° |
| 2026-04-29 17:55 | -14.85610 | -71.66182 | 38029 ft | 464 kts | 292° |
| 2026-04-29 17:56 | -14.83091 | -71.72329 | 38029 ft | 464 kts | 292° |
| 2026-04-29 17:56 | -14.80566 | -71.78473 | 38027 ft | 464 kts | 292° |
| 2026-04-29 17:57 | -14.78036 | -71.84609 | 38027 ft | 464 kts | 292° |
| 2026-04-29 17:57 | -14.75498 | -71.90795 | 38025 ft | 464 kts | 292° |
| 2026-04-29 17:58 | -14.72975 | -71.96938 | 38025 ft | 465 kts | 292° |
| 2026-04-29 17:58 | -14.70450 | -72.03081 | 38030 ft | 465 kts | 292° |
| 2026-04-29 17:59 | -14.67912 | -72.09229 | 38031 ft | 465 kts | 292° |
| 2026-04-29 17:59 | -14.65375 | -72.15380 | 38030 ft | 465 kts | 292° |
| 2026-04-29 18:00 | -14.62849 | -72.21502 | 38031 ft | 465 kts | 292° |
| 2026-04-29 18:00 | -14.60309 | -72.27646 | 38031 ft | 465 kts | 292° |
| 2026-04-29 18:01 | -14.57768 | -72.33787 | 38030 ft | 465 kts | 292° |
| 2026-04-29 18:01 | -14.55227 | -72.39928 | 38030 ft | 465 kts | 292° |
| 2026-04-29 18:02 | -14.52688 | -72.46065 | 38029 ft | 465 kts | 292° |
| 2026-04-29 18:02 | -14.50150 | -72.52209 | 38033 ft | 465 kts | 292° |
| 2026-04-29 18:03 | -14.47605 | -72.58343 | 38029 ft | 465 kts | 293° |
| 2026-04-29 18:03 | -14.45049 | -72.64468 | 38030 ft | 465 kts | 293° |
| 2026-04-29 18:04 | -14.42494 | -72.70598 | 38027 ft | 465 kts | 293° |
| 2026-04-29 18:04 | -14.39952 | -72.76725 | 38029 ft | 465 kts | 292° |
| 2026-04-29 18:05 | -14.37393 | -72.82889 | 38026 ft | 465 kts | 293° |
| 2026-04-29 18:05 | -14.34841 | -72.88999 | 38024 ft | 464 kts | 293° |
| 2026-04-29 18:06 | -14.32284 | -72.95122 | 38024 ft | 464 kts | 293° |
| 2026-04-29 18:06 | -14.29729 | -73.01240 | 38023 ft | 464 kts | 293° |
| 2026-04-29 18:07 | -14.27180 | -73.07353 | 38025 ft | 464 kts | 293° |
| 2026-04-29 18:07 | -14.24627 | -73.13462 | 38022 ft | 464 kts | 293° |
| 2026-04-29 18:08 | -14.22069 | -73.19566 | 38023 ft | 464 kts | 293° |
| 2026-04-29 18:08 | -14.19515 | -73.25668 | 38020 ft | 464 kts | 293° |
| 2026-04-29 18:09 | -14.17391 | -73.30739 | 38019 ft | 464 kts | 293° |
| 2026-04-29 18:09 | -14.14814 | -73.36880 | 38020 ft | 464 kts | 293° |
| 2026-04-29 18:10 | -14.12255 | -73.42976 | 38019 ft | 464 kts | 293° |
| 2026-04-29 18:10 | -14.09694 | -73.49071 | 38016 ft | 463 kts | 293° |
| 2026-04-29 18:11 | -14.07135 | -73.55161 | 38015 ft | 463 kts | 293° |
| 2026-04-29 18:11 | -14.04573 | -73.61254 | 38016 ft | 464 kts | 293° |
| 2026-04-29 18:12 | -14.02010 | -73.67346 | 38016 ft | 464 kts | 293° |
| 2026-04-29 18:12 | -13.99445 | -73.73436 | 38016 ft | 464 kts | 293° |
| 2026-04-29 18:13 | -13.96878 | -73.79530 | 38021 ft | 464 kts | 293° |
| 2026-04-29 18:13 | -13.94306 | -73.85615 | 38019 ft | 464 kts | 293° |
| 2026-04-29 18:14 | -13.91735 | -73.91710 | 38020 ft | 464 kts | 293° |
| 2026-04-29 18:14 | -13.89163 | -73.97800 | 38020 ft | 464 kts | 293° |
| 2026-04-29 18:15 | -13.86580 | -74.03888 | 38021 ft | 464 kts | 293° |
| 2026-04-29 18:15 | -13.84000 | -74.09975 | 38024 ft | 464 kts | 293° |
| 2026-04-29 18:16 | -13.81428 | -74.16044 | 38023 ft | 464 kts | 293° |
| 2026-04-29 18:16 | -13.78846 | -74.22140 | 38023 ft | 464 kts | 293° |
| 2026-04-29 18:17 | -13.76268 | -74.28232 | 38024 ft | 465 kts | 293° |
| 2026-04-29 18:17 | -13.73659 | -74.34359 | 38025 ft | 465 kts | 293° |
| 2026-04-29 18:18 | -13.71068 | -74.40444 | 38025 ft | 465 kts | 293° |
| 2026-04-29 18:18 | -13.68476 | -74.46526 | 38026 ft | 465 kts | 293° |
| 2026-04-29 18:19 | -13.65880 | -74.52620 | 38028 ft | 465 kts | 293° |
| 2026-04-29 18:19 | -13.63292 | -74.58713 | 38026 ft | 465 kts | 293° |
| 2026-04-29 18:20 | -13.60697 | -74.64797 | 38029 ft | 465 kts | 293° |
| 2026-04-29 18:20 | -13.58095 | -74.70881 | 38029 ft | 465 kts | 293° |
| 2026-04-29 18:21 | -13.55493 | -74.76974 | 38030 ft | 465 kts | 293° |
| 2026-04-29 18:21 | -13.52897 | -74.83064 | 38030 ft | 465 kts | 293° |
| 2026-04-29 18:22 | -13.50297 | -74.89151 | 38029 ft | 465 kts | 293° |
| 2026-04-29 18:22 | -13.47689 | -74.95233 | 38028 ft | 465 kts | 293° |
| 2026-04-29 18:23 | -13.45081 | -75.01307 | 38029 ft | 465 kts | 293° |
| 2026-04-29 18:23 | -13.42471 | -75.07382 | 38027 ft | 465 kts | 293° |
| 2026-04-29 18:24 | -13.39860 | -75.13455 | 38031 ft | 465 kts | 293° |
| 2026-04-29 18:24 | -13.37257 | -75.19527 | 38032 ft | 465 kts | 293° |
| 2026-04-29 18:25 | -13.34648 | -75.25616 | 38031 ft | 465 kts | 293° |
| 2026-04-29 18:25 | -13.32014 | -75.31733 | 38034 ft | 465 kts | 293° |
| 2026-04-29 18:26 | -13.29394 | -75.37809 | 38030 ft | 465 kts | 294° |
| 2026-04-29 18:26 | -13.26772 | -75.43886 | 38031 ft | 466 kts | 293° |
| 2026-04-29 18:27 | -13.24154 | -75.49962 | 38032 ft | 466 kts | 293° |
| 2026-04-29 18:27 | -13.21539 | -75.56042 | 38032 ft | 466 kts | 293° |
| 2026-04-29 18:28 | -13.18911 | -75.62116 | 38033 ft | 466 kts | 294° |
| 2026-04-29 18:28 | -13.16281 | -75.68190 | 38032 ft | 466 kts | 294° |
| 2026-04-29 18:29 | -13.13656 | -75.74257 | 38032 ft | 466 kts | 294° |
| 2026-04-29 18:29 | -13.11023 | -75.80329 | 38032 ft | 465 kts | 294° |
| 2026-04-29 18:30 | -13.08399 | -75.86394 | 38031 ft | 465 kts | 294° |
| 2026-04-29 18:30 | -13.05776 | -75.92461 | 38031 ft | 465 kts | 294° |
| 2026-04-29 18:31 | -13.03143 | -75.98526 | 38032 ft | 465 kts | 294° |
| 2026-04-29 18:31 | -13.00511 | -76.04578 | 38031 ft | 465 kts | 294° |
| 2026-04-29 18:32 | -12.97876 | -76.10636 | 38030 ft | 465 kts | 294° |
| 2026-04-29 18:32 | -12.93923 | -76.19716 | 38028 ft | 465 kts | 294° |
| 2026-04-29 18:33 | -12.91271 | -76.25804 | 38027 ft | 465 kts | 294° |
| 2026-04-29 18:33 | -12.88641 | -76.31848 | 38027 ft | 464 kts | 294° |
| 2026-04-29 18:34 | -12.86450 | -76.36874 | 38029 ft | 464 kts | 294° |
| 2026-04-29 18:34 | -12.83369 | -76.43934 | 38027 ft | 464 kts | 294° |
| 2026-04-29 18:35 | -12.80733 | -76.49974 | 38030 ft | 464 kts | 294° |
| 2026-04-29 18:35 | -12.79415 | -76.52985 | 37685 ft | 461 kts | 294° |
| 2026-04-29 18:35 | -12.78103 | -76.55986 | 36364 ft | 462 kts | 294° |
| 2026-04-29 18:36 | -12.76787 | -76.58999 | 34945 ft | 465 kts | 294° |
| 2026-04-29 18:36 | -12.75432 | -76.62012 | 33417 ft | 467 kts | 295° |
| 2026-04-29 18:36 | -12.73960 | -76.64986 | 31773 ft | 469 kts | 297° |
| 2026-04-29 18:36 | -12.72396 | -76.67930 | 29973 ft | 472 kts | 298° |
| 2026-04-29 18:37 | -12.70779 | -76.70867 | 27991 ft | 475 kts | 299° |
| 2026-04-29 18:37 | -12.69138 | -76.73817 | 25914 ft | 478 kts | 299° |
| 2026-04-29 18:37 | -12.67515 | -76.76759 | 24604 ft | 466 kts | 299° |
| 2026-04-29 18:37 | -12.65993 | -76.79566 | 24190 ft | 436 kts | 298° |
| 2026-04-29 18:38 | -12.64584 | -76.82203 | 24003 ft | 406 kts | 298° |
| 2026-04-29 18:38 | -12.63283 | -76.84663 | 23869 ft | 381 kts | 298° |
| 2026-04-29 18:38 | -12.62053 | -76.87000 | 23423 ft | 367 kts | 298° |
| 2026-04-29 18:38 | -12.60854 | -76.89277 | 22744 ft | 360 kts | 298° |
| 2026-04-29 18:39 | -12.59710 | -76.91444 | 22043 ft | 355 kts | 298° |
| 2026-04-29 18:39 | -12.58423 | -76.93575 | 21312 ft | 350 kts | 308° |
| 2026-04-29 18:39 | -12.56731 | -76.95346 | 20587 ft | 347 kts | 321° |
| 2026-04-29 18:39 | -12.54716 | -76.96668 | 19849 ft | 343 kts | 333° |
| 2026-04-29 18:40 | -12.52577 | -76.97727 | 19103 ft | 340 kts | 334° |
| 2026-04-29 18:40 | -12.50455 | -76.98777 | 18506 ft | 339 kts | 334° |
| 2026-04-29 18:40 | -12.48345 | -76.99826 | 18143 ft | 336 kts | 334° |
| 2026-04-29 18:40 | -12.46212 | -77.00887 | 17733 ft | 334 kts | 333° |
| 2026-04-29 18:41 | -12.39995 | -77.03986 | 16552 ft | 328 kts | 333° |
| 2026-04-29 18:41 | -12.38637 | -77.04663 | 16292 ft | 327 kts | 333° |
| 2026-04-29 18:42 | -12.36597 | -77.05680 | 15901 ft | 325 kts | 333° |
| 2026-04-29 18:42 | -12.34573 | -77.06688 | 15524 ft | 323 kts | 333° |
| 2026-04-29 18:42 | -12.32553 | -77.07691 | 15129 ft | 321 kts | 334° |
| 2026-04-29 18:42 | -12.30548 | -77.08686 | 14768 ft | 320 kts | 333° |
| 2026-04-29 18:43 | -12.28555 | -77.09675 | 14394 ft | 318 kts | 333° |
| 2026-04-29 18:43 | -12.26571 | -77.10660 | 14024 ft | 316 kts | 333° |
| 2026-04-29 18:43 | -12.24597 | -77.11640 | 13654 ft | 314 kts | 333° |
| 2026-04-29 18:43 | -12.22647 | -77.12606 | 13125 ft | 310 kts | 334° |
| 2026-04-29 18:44 | -12.20714 | -77.13564 | 12434 ft | 307 kts | 333° |
| 2026-04-29 18:44 | -12.18804 | -77.14512 | 11851 ft | 302 kts | 333° |
| 2026-04-29 18:44 | -12.16928 | -77.15447 | 11443 ft | 299 kts | 333° |
| 2026-04-29 18:44 | -12.15064 | -77.16373 | 11056 ft | 297 kts | 333° |
| 2026-04-29 18:45 | -12.13215 | -77.17288 | 10685 ft | 289 kts | 333° |
| 2026-04-29 18:45 | -12.11456 | -77.18159 | 10429 ft | 274 kts | 333° |
| 2026-04-29 18:45 | -12.09726 | -77.19017 | 10178 ft | 273 kts | 333° |
| 2026-04-29 18:45 | -12.08049 | -77.19850 | 9929 ft | 270 kts | 333° |
| 2026-04-29 18:46 | -12.06343 | -77.20696 | 9803 ft | 269 kts | 333° |
| 2026-04-29 18:46 | -12.04661 | -77.21529 | 9524 ft | 268 kts | 333° |
| 2026-04-29 18:46 | -12.02981 | -77.22361 | 9198 ft | 269 kts | 333° |
| 2026-04-29 18:46 | -12.01299 | -77.23196 | 8831 ft | 270 kts | 333° |
| 2026-04-29 18:47 | -11.99620 | -77.24053 | 8548 ft | 268 kts | 332° |
| 2026-04-29 18:47 | -11.97957 | -77.24921 | 8221 ft | 268 kts | 332° |
| 2026-04-29 18:47 | -11.96309 | -77.25787 | 7964 ft | 265 kts | 332° |
| 2026-04-29 18:47 | -11.94668 | -77.26649 | 7636 ft | 265 kts | 332° |
| 2026-04-29 18:48 | -11.93031 | -77.27508 | 7333 ft | 264 kts | 332° |
| 2026-04-29 18:48 | -11.91395 | -77.28354 | 7035 ft | 263 kts | 333° |
| 2026-04-29 18:48 | -11.89752 | -77.29174 | 6733 ft | 261 kts | 333° |
| 2026-04-29 18:48 | -11.88126 | -77.29971 | 6228 ft | 259 kts | 334° |
| 2026-04-29 18:49 | -11.86477 | -77.30687 | 5662 ft | 257 kts | 347° |
| 2026-04-29 18:49 | -11.84721 | -77.30641 | 5151 ft | 255 kts | 18° |
| 2026-04-29 18:49 | -11.83246 | -77.29658 | 4767 ft | 256 kts | 51° |
| 2026-04-29 18:49 | -11.82331 | -77.28105 | 4409 ft | 256 kts | 63° |
| 2026-04-29 18:50 | -11.81559 | -77.26520 | 4269 ft | 240 kts | 64° |
| 2026-04-29 18:50 | -11.80958 | -77.25017 | 4152 ft | 219 kts | 82° |
| 2026-04-29 18:50 | -11.81052 | -77.23550 | 4062 ft | 202 kts | 111° |
| 2026-04-29 18:50 | -11.81783 | -77.22368 | 3825 ft | 196 kts | 139° |
| 2026-04-29 18:51 | -11.82881 | -77.21559 | 3604 ft | 195 kts | 146° |
| 2026-04-29 18:51 | -11.83960 | -77.20800 | 3413 ft | 181 kts | 146° |
| 2026-04-29 18:51 | -11.84967 | -77.20089 | 3182 ft | 171 kts | 148° |
| 2026-04-29 18:51 | -11.85959 | -77.19494 | 2983 ft | 160 kts | 153° |
| 2026-04-29 18:52 | -11.86909 | -77.18988 | 2822 ft | 147 kts | 154° |
| 2026-04-29 18:52 | -11.87790 | -77.18540 | 2776 ft | 142 kts | 155° |
| 2026-04-29 18:52 | -11.88547 | -77.18161 | 2663 ft | 141 kts | 155° |
| 2026-04-29 18:52 | -11.89422 | -77.17727 | 2496 ft | 140 kts | 155° |
| 2026-04-29 18:53 | -11.90294 | -77.17295 | 2320 ft | 139 kts | 155° |
| 2026-04-29 18:53 | -11.91174 | -77.16861 | 2137 ft | 138 kts | 155° |
| 2026-04-29 18:53 | -11.92041 | -77.16434 | 1955 ft | 138 kts | 155° |
| 2026-04-29 18:53 | -11.92810 | -77.16055 | 1793 ft | 138 kts | 155° |
| 2026-04-29 18:54 | -11.93671 | -77.15631 | 1611 ft | 137 kts | 155° |
| 2026-04-29 18:54 | -11.94519 | -77.15213 | 1431 ft | 137 kts | 155° |
| 2026-04-29 18:54 | -11.95386 | -77.14786 | 1247 ft | 137 kts | 155° |
| 2026-04-29 18:54 | -11.96240 | -77.14365 | 1066 ft | 136 kts | 155° |
| 2026-04-29 18:55 | -11.97095 | -77.13944 | 885 ft | 136 kts | 155° |
| 2026-04-29 18:55 | -11.97944 | -77.13525 | 701 ft | 135 kts | 155° |
| 2026-04-29 18:55 | -11.98791 | -77.13103 | 528 ft | 135 kts | 154° |
| 2026-04-29 18:55 | -11.99629 | -77.12674 | 350 ft | 135 kts | 156° |
| 2026-04-29 18:56 | -12.00478 | -77.12271 | 170 ft | 135 kts | 156° |
| 2026-04-29 18:56 | -12.01306 | -77.11873 | 61 ft | 115 kts | 156° |
| 2026-04-29 18:56 | -12.01760 | -77.11661 | 72 ft | 28 kts | 154° |
| 2026-04-29 18:56 | -12.01901 | -77.11594 | 75 ft | 28 kts | 155° |
| 2026-04-29 18:57 | -12.02102 | -77.11479 | 81 ft | 37 kts | 144° |
| 2026-04-29 18:57 | -12.02252 | -77.11317 | 89 ft | 28 kts | 130° |
| 2026-04-29 18:57 | -12.02297 | -77.11264 | 88 ft | 0 kts | 132° |
| 2026-04-29 18:58 | -12.02303 | -77.11258 | 88 ft | 4 kts | 132° |
| 2026-04-29 18:58 | -12.02332 | -77.11222 | 88 ft | 10 kts | 125° |
| 2026-04-29 18:58 | -12.02378 | -77.11142 | 91 ft | 16 kts | 124° |
| 2026-04-29 18:58 | -12.02471 | -77.11057 | 92 ft | 20 kts | 124° |
| 2026-04-29 18:59 | -12.02538 | -77.10941 | 94 ft | 15 kts | 94° |
| 2026-04-29 18:59 | -12.02518 | -77.10875 | 95 ft | 0 kts | 60° |